sensor_id;sensor_type;location;lat;lon;timestamp;P1;durP1;ratioP1;P2;durP2;ratioP2
16031;SDS011;8120;48.308;8.914;2024-01-30T00:02:25;4.10;;;1.70;;
16031;SDS011;8120;48.308;8.914;2024-01-30T00:04:54;1.90;;;1.20;;
16031;SDS011;8120;48.308;8.914;2024-01-30T00:07:22;4.47;;;3.10;;
16031;SDS011;8120;48.308;8.914;2024-01-30T00:09:51;6.40;;;3.87;;
16031;SDS011;8120;48.308;8.914;2024-01-30T00:12:18;5.73;;;3.67;;
16031;SDS011;8120;48.308;8.914;2024-01-30T00:14:46;6.57;;;4.30;;
16031;SDS011;8120;48.308;8.914;2024-01-30T00:17:19;9.87;;;4.77;;
16031;SDS011;8120;48.308;8.914;2024-01-30T00:19:48;5.83;;;4.67;;
16031;SDS011;8120;48.308;8.914;2024-01-30T00:22:17;7.10;;;4.73;;
16031;SDS011;8120;48.308;8.914;2024-01-30T00:24:45;8.53;;;4.70;;
16031;SDS011;8120;48.308;8.914;2024-01-30T00:27:13;8.37;;;5.00;;
16031;SDS011;8120;48.308;8.914;2024-01-30T00:29:41;8.10;;;5.10;;
16031;SDS011;8120;48.308;8.914;2024-01-30T00:32:09;8.77;;;4.80;;
16031;SDS011;8120;48.308;8.914;2024-01-30T00:34:39;8.50;;;4.70;;
16031;SDS011;8120;48.308;8.914;2024-01-30T00:37:07;7.83;;;5.00;;
16031;SDS011;8120;48.308;8.914;2024-01-30T00:39:36;11.03;;;7.20;;
16031;SDS011;8120;48.308;8.914;2024-01-30T00:42:04;10.87;;;7.30;;
16031;SDS011;8120;48.308;8.914;2024-01-30T00:44:34;7.80;;;5.63;;
16031;SDS011;8120;48.308;8.914;2024-01-30T00:47:03;9.90;;;5.77;;
16031;SDS011;8120;48.308;8.914;2024-01-30T00:49:31;8.30;;;6.10;;
16031;SDS011;8120;48.308;8.914;2024-01-30T00:52:00;10.40;;;6.50;;
16031;SDS011;8120;48.308;8.914;2024-01-30T00:54:27;13.23;;;6.37;;
16031;SDS011;8120;48.308;8.914;2024-01-30T00:56:57;8.23;;;5.17;;
16031;SDS011;8120;48.308;8.914;2024-01-30T00:59:25;8.03;;;5.10;;
16031;SDS011;8120;48.308;8.914;2024-01-30T01:01:53;8.00;;;5.23;;
16031;SDS011;8120;48.308;8.914;2024-01-30T01:04:21;8.67;;;5.37;;
16031;SDS011;8120;48.308;8.914;2024-01-30T01:06:49;9.70;;;5.27;;
16031;SDS011;8120;48.308;8.914;2024-01-30T01:09:17;7.20;;;4.90;;
16031;SDS011;8120;48.308;8.914;2024-01-30T01:11:45;9.10;;;5.53;;
16031;SDS011;8120;48.308;8.914;2024-01-30T01:14:15;8.77;;;5.33;;
16031;SDS011;8120;48.308;8.914;2024-01-30T01:16:43;8.07;;;4.93;;
16031;SDS011;8120;48.308;8.914;2024-01-30T01:19:11;8.20;;;4.93;;
16031;SDS011;8120;48.308;8.914;2024-01-30T01:21:39;10.83;;;6.10;;
16031;SDS011;8120;48.308;8.914;2024-01-30T01:24:07;7.70;;;6.03;;
16031;SDS011;8120;48.308;8.914;2024-01-30T01:26:35;8.57;;;5.40;;
16031;SDS011;8120;48.308;8.914;2024-01-30T01:29:03;9.07;;;5.37;;
16031;SDS011;8120;48.308;8.914;2024-01-30T01:31:39;12.90;;;7.77;;
16031;SDS011;8120;48.308;8.914;2024-01-30T01:34:10;10.63;;;8.63;;
16031;SDS011;8120;48.308;8.914;2024-01-30T01:36:38;13.30;;;7.40;;
16031;SDS011;8120;48.308;8.914;2024-01-30T01:39:06;9.53;;;5.30;;
16031;SDS011;8120;48.308;8.914;2024-01-30T01:41:34;7.47;;;4.47;;
16031;SDS011;8120;48.308;8.914;2024-01-30T01:44:03;7.57;;;3.83;;
16031;SDS011;8120;48.308;8.914;2024-01-30T01:46:32;8.53;;;4.07;;
16031;SDS011;8120;48.308;8.914;2024-01-30T01:49:03;6.10;;;3.90;;
16031;SDS011;8120;48.308;8.914;2024-01-30T01:51:35;7.50;;;5.07;;
16031;SDS011;8120;48.308;8.914;2024-01-30T01:54:04;9.07;;;6.10;;
16031;SDS011;8120;48.308;8.914;2024-01-30T01:56:32;6.43;;;4.63;;
16031;SDS011;8120;48.308;8.914;2024-01-30T01:59:04;11.37;;;6.37;;
16031;SDS011;8120;48.308;8.914;2024-01-30T02:01:34;9.83;;;5.47;;
16031;SDS011;8120;48.308;8.914;2024-01-30T02:04:05;6.87;;;3.47;;
16031;SDS011;8120;48.308;8.914;2024-01-30T02:06:34;5.43;;;3.50;;
16031;SDS011;8120;48.308;8.914;2024-01-30T02:09:02;7.67;;;3.37;;
16031;SDS011;8120;48.308;8.914;2024-01-30T02:11:31;4.83;;;2.53;;
16031;SDS011;8120;48.308;8.914;2024-01-30T02:14:01;4.13;;;2.83;;
16031;SDS011;8120;48.308;8.914;2024-01-30T02:16:29;6.43;;;3.20;;
16031;SDS011;8120;48.308;8.914;2024-01-30T02:18:57;5.33;;;2.83;;
16031;SDS011;8120;48.308;8.914;2024-01-30T02:21:27;4.33;;;2.97;;
16031;SDS011;8120;48.308;8.914;2024-01-30T02:23:55;4.77;;;2.70;;
16031;SDS011;8120;48.308;8.914;2024-01-30T02:26:25;4.90;;;2.63;;
16031;SDS011;8120;48.308;8.914;2024-01-30T02:28:53;4.70;;;2.80;;
16031;SDS011;8120;48.308;8.914;2024-01-30T02:31:21;4.97;;;2.90;;
16031;SDS011;8120;48.308;8.914;2024-01-30T02:33:50;4.67;;;2.60;;
16031;SDS011;8120;48.308;8.914;2024-01-30T02:36:18;6.87;;;3.07;;
16031;SDS011;8120;48.308;8.914;2024-01-30T02:38:47;4.40;;;2.80;;
16031;SDS011;8120;48.308;8.914;2024-01-30T02:41:15;5.67;;;2.73;;
16031;SDS011;8120;48.308;8.914;2024-01-30T02:43:43;3.80;;;2.63;;
16031;SDS011;8120;48.308;8.914;2024-01-30T02:46:11;4.00;;;2.50;;
16031;SDS011;8120;48.308;8.914;2024-01-30T02:48:38;4.40;;;2.30;;
16031;SDS011;8120;48.308;8.914;2024-01-30T02:51:06;4.80;;;2.10;;
16031;SDS011;8120;48.308;8.914;2024-01-30T02:53:34;4.10;;;2.27;;
16031;SDS011;8120;48.308;8.914;2024-01-30T02:56:04;5.07;;;2.67;;
16031;SDS011;8120;48.308;8.914;2024-01-30T02:58:36;4.90;;;3.30;;
16031;SDS011;8120;48.308;8.914;2024-01-30T03:01:03;5.33;;;3.73;;
16031;SDS011;8120;48.308;8.914;2024-01-30T03:03:31;5.60;;;3.40;;
16031;SDS011;8120;48.308;8.914;2024-01-30T03:06:01;4.03;;;2.83;;
16031;SDS011;8120;48.308;8.914;2024-01-30T03:08:29;5.37;;;3.67;;
16031;SDS011;8120;48.308;8.914;2024-01-30T03:10:57;4.00;;;2.80;;
16031;SDS011;8120;48.308;8.914;2024-01-30T03:13:26;5.63;;;3.00;;
16031;SDS011;8120;48.308;8.914;2024-01-30T03:15:54;4.53;;;2.93;;
16031;SDS011;8120;48.308;8.914;2024-01-30T03:18:22;5.73;;;3.53;;
16031;SDS011;8120;48.308;8.914;2024-01-30T03:20:50;4.93;;;3.10;;
16031;SDS011;8120;48.308;8.914;2024-01-30T03:23:18;6.50;;;3.83;;
16031;SDS011;8120;48.308;8.914;2024-01-30T03:25:46;8.07;;;3.97;;
16031;SDS011;8120;48.308;8.914;2024-01-30T03:28:13;5.73;;;3.73;;
16031;SDS011;8120;48.308;8.914;2024-01-30T03:30:43;6.03;;;3.80;;
16031;SDS011;8120;48.308;8.914;2024-01-30T03:33:11;6.00;;;3.53;;
16031;SDS011;8120;48.308;8.914;2024-01-30T03:35:39;5.27;;;3.30;;
16031;SDS011;8120;48.308;8.914;2024-01-30T03:38:07;6.17;;;3.60;;
16031;SDS011;8120;48.308;8.914;2024-01-30T03:40:35;3.63;;;2.90;;
16031;SDS011;8120;48.308;8.914;2024-01-30T03:43:03;5.17;;;3.07;;
16031;SDS011;8120;48.308;8.914;2024-01-30T03:45:31;5.67;;;3.23;;
16031;SDS011;8120;48.308;8.914;2024-01-30T03:48:00;4.73;;;3.07;;
16031;SDS011;8120;48.308;8.914;2024-01-30T03:50:28;5.33;;;2.70;;
16031;SDS011;8120;48.308;8.914;2024-01-30T03:52:56;5.37;;;3.27;;
16031;SDS011;8120;48.308;8.914;2024-01-30T03:55:24;4.20;;;2.80;;
16031;SDS011;8120;48.308;8.914;2024-01-30T03:57:52;3.43;;;2.30;;
16031;SDS011;8120;48.308;8.914;2024-01-30T04:00:20;4.30;;;2.73;;
16031;SDS011;8120;48.308;8.914;2024-01-30T04:02:47;5.23;;;2.90;;
16031;SDS011;8120;48.308;8.914;2024-01-30T04:05:18;5.93;;;2.70;;
16031;SDS011;8120;48.308;8.914;2024-01-30T04:07:46;3.77;;;2.27;;
16031;SDS011;8120;48.308;8.914;2024-01-30T04:10:14;4.87;;;2.50;;
16031;SDS011;8120;48.308;8.914;2024-01-30T04:12:42;3.30;;;2.37;;
16031;SDS011;8120;48.308;8.914;2024-01-30T04:15:10;5.07;;;2.60;;
16031;SDS011;8120;48.308;8.914;2024-01-30T04:17:39;2.47;;;1.67;;
16031;SDS011;8120;48.308;8.914;2024-01-30T04:20:08;3.57;;;2.30;;
16031;SDS011;8120;48.308;8.914;2024-01-30T04:22:40;4.00;;;2.00;;
16031;SDS011;8120;48.308;8.914;2024-01-30T04:25:09;3.90;;;2.60;;
16031;SDS011;8120;48.308;8.914;2024-01-30T04:27:37;6.07;;;2.70;;
16031;SDS011;8120;48.308;8.914;2024-01-30T04:30:05;4.80;;;2.70;;
16031;SDS011;8120;48.308;8.914;2024-01-30T04:32:34;7.27;;;4.03;;
16031;SDS011;8120;48.308;8.914;2024-01-30T04:35:02;9.13;;;6.00;;
16031;SDS011;8120;48.308;8.914;2024-01-30T04:37:36;12.43;;;9.07;;
16031;SDS011;8120;48.308;8.914;2024-01-30T04:40:06;11.07;;;7.77;;
16031;SDS011;8120;48.308;8.914;2024-01-30T04:42:36;10.83;;;7.10;;
16031;SDS011;8120;48.308;8.914;2024-01-30T04:45:05;10.87;;;8.60;;
16031;SDS011;8120;48.308;8.914;2024-01-30T04:47:33;10.90;;;8.70;;
16031;SDS011;8120;48.308;8.914;2024-01-30T04:50:01;5.80;;;4.77;;
16031;SDS011;8120;48.308;8.914;2024-01-30T04:52:31;6.47;;;3.07;;
16031;SDS011;8120;48.308;8.914;2024-01-30T04:54:59;10.27;;;8.20;;
16031;SDS011;8120;48.308;8.914;2024-01-30T04:57:28;8.77;;;5.93;;
16031;SDS011;8120;48.308;8.914;2024-01-30T04:59:57;7.67;;;5.00;;
16031;SDS011;8120;48.308;8.914;2024-01-30T05:02:25;7.20;;;4.10;;
16031;SDS011;8120;48.308;8.914;2024-01-30T05:04:53;5.23;;;3.43;;
16031;SDS011;8120;48.308;8.914;2024-01-30T05:07:20;6.73;;;3.90;;
16031;SDS011;8120;48.308;8.914;2024-01-30T05:09:49;5.93;;;3.60;;
16031;SDS011;8120;48.308;8.914;2024-01-30T05:12:16;5.60;;;3.53;;
16031;SDS011;8120;48.308;8.914;2024-01-30T05:14:45;3.47;;;2.67;;
16031;SDS011;8120;48.308;8.914;2024-01-30T05:17:13;8.90;;;4.83;;
16031;SDS011;8120;48.308;8.914;2024-01-30T05:19:42;16.47;;;9.53;;
16031;SDS011;8120;48.308;8.914;2024-01-30T05:22:10;83.30;;;44.43;;
16031;SDS011;8120;48.308;8.914;2024-01-30T05:24:41;48.33;;;30.03;;
16031;SDS011;8120;48.308;8.914;2024-01-30T05:27:09;16.17;;;10.03;;
16031;SDS011;8120;48.308;8.914;2024-01-30T05:29:39;15.27;;;9.17;;
16031;SDS011;8120;48.308;8.914;2024-01-30T05:32:09;11.67;;;7.43;;
16031;SDS011;8120;48.308;8.914;2024-01-30T05:34:37;10.30;;;5.97;;
16031;SDS011;8120;48.308;8.914;2024-01-30T05:37:04;8.70;;;5.70;;
16031;SDS011;8120;48.308;8.914;2024-01-30T05:39:33;8.67;;;5.50;;
16031;SDS011;8120;48.308;8.914;2024-01-30T05:42:01;10.80;;;6.03;;
16031;SDS011;8120;48.308;8.914;2024-01-30T05:44:30;7.57;;;4.73;;
16031;SDS011;8120;48.308;8.914;2024-01-30T05:46:58;6.93;;;4.40;;
16031;SDS011;8120;48.308;8.914;2024-01-30T05:49:27;8.47;;;4.20;;
16031;SDS011;8120;48.308;8.914;2024-01-30T05:51:55;8.17;;;4.67;;
16031;SDS011;8120;48.308;8.914;2024-01-30T05:54:23;8.00;;;4.13;;
16031;SDS011;8120;48.308;8.914;2024-01-30T05:56:51;7.07;;;3.80;;
16031;SDS011;8120;48.308;8.914;2024-01-30T05:59:18;6.60;;;4.13;;
16031;SDS011;8120;48.308;8.914;2024-01-30T06:01:46;7.03;;;4.30;;
16031;SDS011;8120;48.308;8.914;2024-01-30T06:04:15;8.87;;;5.20;;
16031;SDS011;8120;48.308;8.914;2024-01-30T06:06:44;7.80;;;4.33;;
16031;SDS011;8120;48.308;8.914;2024-01-30T06:09:12;6.23;;;4.10;;
16031;SDS011;8120;48.308;8.914;2024-01-30T06:11:40;5.03;;;3.00;;
16031;SDS011;8120;48.308;8.914;2024-01-30T06:14:08;4.77;;;3.03;;
16031;SDS011;8120;48.308;8.914;2024-01-30T06:16:36;7.27;;;3.67;;
16031;SDS011;8120;48.308;8.914;2024-01-30T06:19:04;5.37;;;3.60;;
16031;SDS011;8120;48.308;8.914;2024-01-30T06:21:32;11.43;;;6.73;;
16031;SDS011;8120;48.308;8.914;2024-01-30T06:24:04;10.60;;;6.60;;
16031;SDS011;8120;48.308;8.914;2024-01-30T06:26:32;8.77;;;4.67;;
16031;SDS011;8120;48.308;8.914;2024-01-30T06:29:01;7.17;;;4.13;;
16031;SDS011;8120;48.308;8.914;2024-01-30T06:31:29;6.77;;;4.27;;
16031;SDS011;8120;48.308;8.914;2024-01-30T06:33:57;11.67;;;7.10;;
16031;SDS011;8120;48.308;8.914;2024-01-30T06:36:25;8.37;;;6.47;;
16031;SDS011;8120;48.308;8.914;2024-01-30T06:38:53;10.80;;;8.07;;
16031;SDS011;8120;48.308;8.914;2024-01-30T06:41:22;9.20;;;6.73;;
16031;SDS011;8120;48.308;8.914;2024-01-30T06:43:50;9.90;;;7.20;;
16031;SDS011;8120;48.308;8.914;2024-01-30T06:46:18;11.87;;;6.87;;
16031;SDS011;8120;48.308;8.914;2024-01-30T06:48:46;7.73;;;5.97;;
16031;SDS011;8120;48.308;8.914;2024-01-30T06:51:14;8.43;;;5.90;;
16031;SDS011;8120;48.308;8.914;2024-01-30T06:53:43;10.37;;;5.50;;
16031;SDS011;8120;48.308;8.914;2024-01-30T06:56:11;9.03;;;5.40;;
16031;SDS011;8120;48.308;8.914;2024-01-30T06:58:40;8.00;;;4.63;;
16031;SDS011;8120;48.308;8.914;2024-01-30T07:01:08;7.37;;;4.47;;
16031;SDS011;8120;48.308;8.914;2024-01-30T07:03:36;9.33;;;4.60;;
16031;SDS011;8120;48.308;8.914;2024-01-30T07:06:04;11.83;;;4.47;;
16031;SDS011;8120;48.308;8.914;2024-01-30T07:08:32;6.07;;;4.40;;
16031;SDS011;8120;48.308;8.914;2024-01-30T07:11:00;9.50;;;5.17;;
16031;SDS011;8120;48.308;8.914;2024-01-30T07:13:28;9.57;;;5.10;;
16031;SDS011;8120;48.308;8.914;2024-01-30T07:15:57;14.20;;;4.67;;
16031;SDS011;8120;48.308;8.914;2024-01-30T07:18:25;6.87;;;4.70;;
16031;SDS011;8120;48.308;8.914;2024-01-30T07:20:54;6.53;;;4.07;;
16031;SDS011;8120;48.308;8.914;2024-01-30T07:23:21;10.17;;;4.37;;
16031;SDS011;8120;48.308;8.914;2024-01-30T07:25:49;8.37;;;4.47;;
16031;SDS011;8120;48.308;8.914;2024-01-30T07:28:18;5.17;;;4.13;;
16031;SDS011;8120;48.308;8.914;2024-01-30T07:30:46;5.57;;;3.87;;
16031;SDS011;8120;48.308;8.914;2024-01-30T07:33:16;7.00;;;4.07;;
16031;SDS011;8120;48.308;8.914;2024-01-30T07:35:44;7.10;;;4.03;;
16031;SDS011;8120;48.308;8.914;2024-01-30T07:38:13;7.37;;;3.83;;
16031;SDS011;8120;48.308;8.914;2024-01-30T07:40:41;5.43;;;3.50;;
16031;SDS011;8120;48.308;8.914;2024-01-30T07:43:09;6.10;;;3.50;;
16031;SDS011;8120;48.308;8.914;2024-01-30T07:45:37;6.27;;;3.60;;
16031;SDS011;8120;48.308;8.914;2024-01-30T07:48:07;6.00;;;3.27;;
16031;SDS011;8120;48.308;8.914;2024-01-30T07:50:37;5.03;;;2.90;;
16031;SDS011;8120;48.308;8.914;2024-01-30T07:53:05;5.37;;;3.13;;
16031;SDS011;8120;48.308;8.914;2024-01-30T07:55:33;6.13;;;4.27;;
16031;SDS011;8120;48.308;8.914;2024-01-30T07:58:01;7.60;;;4.63;;
16031;SDS011;8120;48.308;8.914;2024-01-30T08:00:30;18.53;;;9.90;;
16031;SDS011;8120;48.308;8.914;2024-01-30T08:02:58;17.47;;;7.87;;
16031;SDS011;8120;48.308;8.914;2024-01-30T08:05:26;14.60;;;8.10;;
16031;SDS011;8120;48.308;8.914;2024-01-30T08:07:56;14.97;;;8.97;;
16031;SDS011;8120;48.308;8.914;2024-01-30T08:10:24;21.50;;;13.13;;
16031;SDS011;8120;48.308;8.914;2024-01-30T08:12:52;20.73;;;11.53;;
16031;SDS011;8120;48.308;8.914;2024-01-30T08:15:20;18.43;;;10.83;;
16031;SDS011;8120;48.308;8.914;2024-01-30T08:17:47;14.33;;;7.87;;
16031;SDS011;8120;48.308;8.914;2024-01-30T08:20:15;9.37;;;6.80;;
16031;SDS011;8120;48.308;8.914;2024-01-30T08:22:44;14.47;;;8.40;;
16031;SDS011;8120;48.308;8.914;2024-01-30T08:25:13;15.53;;;9.73;;
16031;SDS011;8120;48.308;8.914;2024-01-30T08:27:41;19.97;;;12.37;;
16031;SDS011;8120;48.308;8.914;2024-01-30T08:30:09;24.37;;;15.43;;
16031;SDS011;8120;48.308;8.914;2024-01-30T08:32:37;23.60;;;14.87;;
16031;SDS011;8120;48.308;8.914;2024-01-30T08:35:06;20.80;;;12.93;;
16031;SDS011;8120;48.308;8.914;2024-01-30T08:37:35;10.70;;;7.73;;
16031;SDS011;8120;48.308;8.914;2024-01-30T08:40:05;8.53;;;5.50;;
16031;SDS011;8120;48.308;8.914;2024-01-30T08:42:36;7.73;;;4.23;;
16031;SDS011;8120;48.308;8.914;2024-01-30T08:45:04;4.47;;;3.17;;
16031;SDS011;8120;48.308;8.914;2024-01-30T08:47:33;3.73;;;2.20;;
16031;SDS011;8120;48.308;8.914;2024-01-30T08:50:01;4.40;;;2.40;;
16031;SDS011;8120;48.308;8.914;2024-01-30T08:52:29;4.07;;;1.90;;
16031;SDS011;8120;48.308;8.914;2024-01-30T08:54:57;6.50;;;3.77;;
16031;SDS011;8120;48.308;8.914;2024-01-30T08:57:25;4.60;;;2.80;;
16031;SDS011;8120;48.308;8.914;2024-01-30T08:59:56;7.40;;;3.77;;
16031;SDS011;8120;48.308;8.914;2024-01-30T09:02:24;5.57;;;3.30;;
16031;SDS011;8120;48.308;8.914;2024-01-30T09:04:52;5.13;;;2.97;;
16031;SDS011;8120;48.308;8.914;2024-01-30T09:07:20;3.47;;;2.20;;
16031;SDS011;8120;48.308;8.914;2024-01-30T09:09:48;2.83;;;1.73;;
16031;SDS011;8120;48.308;8.914;2024-01-30T09:12:16;2.07;;;1.83;;
16031;SDS011;8120;48.308;8.914;2024-01-30T09:14:44;1.93;;;1.40;;
16031;SDS011;8120;48.308;8.914;2024-01-30T09:17:13;2.53;;;1.70;;
16031;SDS011;8120;48.308;8.914;2024-01-30T09:19:41;2.57;;;1.60;;
16031;SDS011;8120;48.308;8.914;2024-01-30T09:22:09;2.70;;;1.87;;
16031;SDS011;8120;48.308;8.914;2024-01-30T09:24:37;2.40;;;1.90;;
16031;SDS011;8120;48.308;8.914;2024-01-30T09:27:05;3.63;;;2.10;;
16031;SDS011;8120;48.308;8.914;2024-01-30T09:29:32;5.13;;;2.17;;
16031;SDS011;8120;48.308;8.914;2024-01-30T09:32:03;2.60;;;1.73;;
16031;SDS011;8120;48.308;8.914;2024-01-30T09:34:33;2.90;;;1.63;;
16031;SDS011;8120;48.308;8.914;2024-01-30T09:37:02;3.07;;;1.60;;
16031;SDS011;8120;48.308;8.914;2024-01-30T09:39:30;2.57;;;1.67;;
16031;SDS011;8120;48.308;8.914;2024-01-30T09:42:00;2.53;;;2.00;;
16031;SDS011;8120;48.308;8.914;2024-01-30T09:44:34;2.40;;;1.80;;
16031;SDS011;8120;48.308;8.914;2024-01-30T09:47:03;2.37;;;1.70;;
16031;SDS011;8120;48.308;8.914;2024-01-30T09:49:33;2.23;;;1.73;;
16031;SDS011;8120;48.308;8.914;2024-01-30T09:52:02;2.17;;;1.80;;
16031;SDS011;8120;48.308;8.914;2024-01-30T09:54:32;3.63;;;2.33;;
16031;SDS011;8120;48.308;8.914;2024-01-30T09:57:02;2.70;;;1.73;;
16031;SDS011;8120;48.308;8.914;2024-01-30T09:59:30;3.17;;;2.00;;
16031;SDS011;8120;48.308;8.914;2024-01-30T10:01:59;4.07;;;2.13;;
16031;SDS011;8120;48.308;8.914;2024-01-30T10:04:29;3.23;;;2.07;;
16031;SDS011;8120;48.308;8.914;2024-01-30T10:07:00;3.77;;;1.90;;
16031;SDS011;8120;48.308;8.914;2024-01-30T10:09:31;2.83;;;1.80;;
16031;SDS011;8120;48.308;8.914;2024-01-30T10:11:59;4.63;;;1.67;;
16031;SDS011;8120;48.308;8.914;2024-01-30T10:14:29;2.37;;;1.73;;
16031;SDS011;8120;48.308;8.914;2024-01-30T10:16:57;5.67;;;2.03;;
16031;SDS011;8120;48.308;8.914;2024-01-30T10:19:25;2.73;;;1.67;;
16031;SDS011;8120;48.308;8.914;2024-01-30T10:21:53;3.73;;;2.07;;
16031;SDS011;8120;48.308;8.914;2024-01-30T10:24:25;4.67;;;2.10;;
16031;SDS011;8120;48.308;8.914;2024-01-30T10:26:55;1.63;;;1.40;;
16031;SDS011;8120;48.308;8.914;2024-01-30T10:29:24;1.40;;;1.30;;
16031;SDS011;8120;48.308;8.914;2024-01-30T10:31:58;2.67;;;1.47;;
16031;SDS011;8120;48.308;8.914;2024-01-30T10:34:26;2.30;;;1.30;;
16031;SDS011;8120;48.308;8.914;2024-01-30T10:36:58;2.47;;;1.60;;
16031;SDS011;8120;48.308;8.914;2024-01-30T10:39:34;2.57;;;1.50;;
16031;SDS011;8120;48.308;8.914;2024-01-30T10:42:05;2.47;;;1.67;;
16031;SDS011;8120;48.308;8.914;2024-01-30T10:44:42;3.17;;;1.70;;
16031;SDS011;8120;48.308;8.914;2024-01-30T10:47:15;1.93;;;1.50;;
16031;SDS011;8120;48.308;8.914;2024-01-30T10:49:48;2.93;;;1.23;;
16031;SDS011;8120;48.308;8.914;2024-01-30T10:52:18;2.50;;;1.50;;
16031;SDS011;8120;48.308;8.914;2024-01-30T10:54:49;3.00;;;1.40;;
16031;SDS011;8120;48.308;8.914;2024-01-30T10:57:18;1.47;;;1.10;;
16031;SDS011;8120;48.308;8.914;2024-01-30T10:59:48;2.47;;;1.50;;
16031;SDS011;8120;48.308;8.914;2024-01-30T11:02:16;1.67;;;1.47;;
16031;SDS011;8120;48.308;8.914;2024-01-30T11:04:45;1.67;;;1.20;;
16031;SDS011;8120;48.308;8.914;2024-01-30T11:07:14;1.87;;;1.60;;
16031;SDS011;8120;48.308;8.914;2024-01-30T11:09:50;4.00;;;1.60;;
16031;SDS011;8120;48.308;8.914;2024-01-30T11:12:21;1.90;;;1.80;;
16031;SDS011;8120;48.308;8.914;2024-01-30T11:14:50;4.20;;;1.70;;
16031;SDS011;8120;48.308;8.914;2024-01-30T11:17:39;2.77;;;1.63;;
16031;SDS011;8120;48.308;8.914;2024-01-30T11:20:09;4.93;;;1.33;;
16031;SDS011;8120;48.308;8.914;2024-01-30T11:22:40;2.30;;;1.57;;
16031;SDS011;8120;48.308;8.914;2024-01-30T11:25:15;2.33;;;1.40;;
16031;SDS011;8120;48.308;8.914;2024-01-30T11:27:44;1.67;;;1.40;;
16031;SDS011;8120;48.308;8.914;2024-01-30T11:30:20;2.13;;;1.60;;
16031;SDS011;8120;48.308;8.914;2024-01-30T11:32:59;2.53;;;1.70;;
16031;SDS011;8120;48.308;8.914;2024-01-30T11:35:29;3.53;;;2.07;;
16031;SDS011;8120;48.308;8.914;2024-01-30T11:37:59;2.23;;;1.50;;
16031;SDS011;8120;48.308;8.914;2024-01-30T11:40:29;3.13;;;1.53;;
16031;SDS011;8120;48.308;8.914;2024-01-30T11:42:58;9.73;;;5.57;;
16031;SDS011;8120;48.308;8.914;2024-01-30T11:45:27;12.53;;;9.30;;
16031;SDS011;8120;48.308;8.914;2024-01-30T11:47:55;10.90;;;7.97;;
16031;SDS011;8120;48.308;8.914;2024-01-30T11:50:24;18.13;;;11.70;;
16031;SDS011;8120;48.308;8.914;2024-01-30T11:52:52;12.43;;;8.53;;
16031;SDS011;8120;48.308;8.914;2024-01-30T11:55:23;8.93;;;6.10;;
16031;SDS011;8120;48.308;8.914;2024-01-30T11:57:56;8.20;;;4.67;;
16031;SDS011;8120;48.308;8.914;2024-01-30T12:00:24;6.20;;;3.90;;
16031;SDS011;8120;48.308;8.914;2024-01-30T12:02:53;5.47;;;3.07;;
16031;SDS011;8120;48.308;8.914;2024-01-30T12:05:27;3.93;;;2.63;;
16031;SDS011;8120;48.308;8.914;2024-01-30T12:07:56;4.43;;;2.80;;
16031;SDS011;8120;48.308;8.914;2024-01-30T12:10:25;3.10;;;2.33;;
16031;SDS011;8120;48.308;8.914;2024-01-30T12:12:57;5.43;;;3.03;;
16031;SDS011;8120;48.308;8.914;2024-01-30T12:15:25;4.83;;;3.40;;
16031;SDS011;8120;48.308;8.914;2024-01-30T12:18:03;7.40;;;3.10;;
16031;SDS011;8120;48.308;8.914;2024-01-30T12:20:31;6.70;;;3.40;;
16031;SDS011;8120;48.308;8.914;2024-01-30T12:22:59;5.53;;;3.10;;
16031;SDS011;8120;48.308;8.914;2024-01-30T12:25:27;6.17;;;3.30;;
16031;SDS011;8120;48.308;8.914;2024-01-30T12:27:57;6.37;;;3.87;;
16031;SDS011;8120;48.308;8.914;2024-01-30T12:30:25;10.50;;;6.63;;
16031;SDS011;8120;48.308;8.914;2024-01-30T12:32:55;8.13;;;5.40;;
16031;SDS011;8120;48.308;8.914;2024-01-30T12:35:24;6.77;;;4.60;;
16031;SDS011;8120;48.308;8.914;2024-01-30T12:37:55;5.97;;;3.50;;
16031;SDS011;8120;48.308;8.914;2024-01-30T12:40:24;5.87;;;3.27;;
16031;SDS011;8120;48.308;8.914;2024-01-30T12:42:52;5.37;;;3.10;;
16031;SDS011;8120;48.308;8.914;2024-01-30T12:45:22;4.13;;;2.90;;
16031;SDS011;8120;48.308;8.914;2024-01-30T12:47:50;4.70;;;3.10;;
16031;SDS011;8120;48.308;8.914;2024-01-30T12:50:18;6.17;;;2.90;;
16031;SDS011;8120;48.308;8.914;2024-01-30T12:52:46;4.00;;;2.80;;
16031;SDS011;8120;48.308;8.914;2024-01-30T12:55:15;5.90;;;2.80;;
16031;SDS011;8120;48.308;8.914;2024-01-30T12:57:44;3.80;;;2.60;;
16031;SDS011;8120;48.308;8.914;2024-01-30T13:00:13;4.43;;;2.73;;
16031;SDS011;8120;48.308;8.914;2024-01-30T13:02:44;3.23;;;2.37;;
16031;SDS011;8120;48.308;8.914;2024-01-30T13:05:13;4.83;;;2.70;;
16031;SDS011;8120;48.308;8.914;2024-01-30T13:07:41;5.50;;;2.80;;
16031;SDS011;8120;48.308;8.914;2024-01-30T13:10:09;4.17;;;2.83;;
16031;SDS011;8120;48.308;8.914;2024-01-30T13:12:37;5.97;;;2.67;;
16031;SDS011;8120;48.308;8.914;2024-01-30T13:15:05;6.07;;;2.50;;
16031;SDS011;8120;48.308;8.914;2024-01-30T13:17:34;6.10;;;2.67;;
16031;SDS011;8120;48.308;8.914;2024-01-30T13:20:04;6.33;;;2.47;;
16031;SDS011;8120;48.308;8.914;2024-01-30T13:22:37;3.73;;;2.70;;
16031;SDS011;8120;48.308;8.914;2024-01-30T13:25:06;6.07;;;2.60;;
16031;SDS011;8120;48.308;8.914;2024-01-30T13:27:35;10.10;;;5.87;;
16031;SDS011;8120;48.308;8.914;2024-01-30T13:30:04;20.47;;;13.13;;
16031;SDS011;8120;48.308;8.914;2024-01-30T13:32:33;12.53;;;6.47;;
16031;SDS011;8120;48.308;8.914;2024-01-30T13:35:01;5.23;;;2.97;;
16031;SDS011;8120;48.308;8.914;2024-01-30T13:37:31;3.37;;;2.20;;
16031;SDS011;8120;48.308;8.914;2024-01-30T13:39:58;6.73;;;2.60;;
16031;SDS011;8120;48.308;8.914;2024-01-30T13:42:30;3.97;;;2.50;;
16031;SDS011;8120;48.308;8.914;2024-01-30T13:44:58;4.73;;;2.20;;
16031;SDS011;8120;48.308;8.914;2024-01-30T13:47:26;5.57;;;2.97;;
16031;SDS011;8120;48.308;8.914;2024-01-30T13:49:54;4.13;;;3.47;;
16031;SDS011;8120;48.308;8.914;2024-01-30T13:52:21;5.83;;;3.47;;
16031;SDS011;8120;48.308;8.914;2024-01-30T13:54:59;5.07;;;2.80;;
16031;SDS011;8120;48.308;8.914;2024-01-30T13:57:27;7.60;;;3.37;;
16031;SDS011;8120;48.308;8.914;2024-01-30T13:59:55;4.60;;;2.50;;
16031;SDS011;8120;48.308;8.914;2024-01-30T14:02:23;5.07;;;2.90;;
16031;SDS011;8120;48.308;8.914;2024-01-30T14:04:51;5.50;;;3.00;;
16031;SDS011;8120;48.308;8.914;2024-01-30T14:07:19;3.53;;;2.40;;
16031;SDS011;8120;48.308;8.914;2024-01-30T14:09:47;3.87;;;2.40;;
16031;SDS011;8120;48.308;8.914;2024-01-30T14:12:17;4.30;;;2.60;;
16031;SDS011;8120;48.308;8.914;2024-01-30T14:14:44;4.03;;;2.83;;
16031;SDS011;8120;48.308;8.914;2024-01-30T14:17:12;4.60;;;2.67;;
16031;SDS011;8120;48.308;8.914;2024-01-30T14:19:40;4.60;;;2.50;;
16031;SDS011;8120;48.308;8.914;2024-01-30T14:22:09;5.33;;;2.90;;
16031;SDS011;8120;48.308;8.914;2024-01-30T14:24:36;5.63;;;2.73;;
16031;SDS011;8120;48.308;8.914;2024-01-30T14:27:05;5.20;;;2.67;;
16031;SDS011;8120;48.308;8.914;2024-01-30T14:29:35;4.23;;;2.33;;
16031;SDS011;8120;48.308;8.914;2024-01-30T14:32:04;3.60;;;2.40;;
16031;SDS011;8120;48.308;8.914;2024-01-30T14:34:32;4.40;;;2.67;;
16031;SDS011;8120;48.308;8.914;2024-01-30T14:37:01;4.27;;;2.40;;
16031;SDS011;8120;48.308;8.914;2024-01-30T14:39:30;4.00;;;2.57;;
16031;SDS011;8120;48.308;8.914;2024-01-30T14:41:58;3.97;;;2.77;;
16031;SDS011;8120;48.308;8.914;2024-01-30T14:44:26;5.63;;;3.50;;
16031;SDS011;8120;48.308;8.914;2024-01-30T14:46:55;6.17;;;3.63;;
16031;SDS011;8120;48.308;8.914;2024-01-30T14:49:23;6.00;;;3.50;;
16031;SDS011;8120;48.308;8.914;2024-01-30T14:51:51;7.90;;;3.90;;
16031;SDS011;8120;48.308;8.914;2024-01-30T14:54:19;4.20;;;3.20;;
16031;SDS011;8120;48.308;8.914;2024-01-30T14:56:47;4.40;;;3.20;;
16031;SDS011;8120;48.308;8.914;2024-01-30T14:59:15;8.00;;;3.87;;
16031;SDS011;8120;48.308;8.914;2024-01-30T15:01:43;7.90;;;3.80;;
16031;SDS011;8120;48.308;8.914;2024-01-30T15:04:13;3.63;;;2.63;;
16031;SDS011;8120;48.308;8.914;2024-01-30T15:06:41;4.97;;;2.93;;
16031;SDS011;8120;48.308;8.914;2024-01-30T15:09:11;5.70;;;2.93;;